Skip Navigation Links Skip Navigation Links

Current Weather

Schaumburg Regional, Chicago/Schaumburg, Ill.

For information only: do not use for flight planning or navigation.
Latest weather
Observation time Friday, February 28, 2020 4:35 AM CST
Local time Friday, February 28, 2020 5:03 AM CST
Flight conditions Visual Meteorological Conditions
Winds
Wind speed calm
Visibility 10 mi.
Sky condition
Ceiling 7,500 ft. overcast
Cloud layer overcast 7,500 ft.
Temperature 18°F
Dewpoint 8°F
Altimeter 30.02 in.Hg
Derived measurements
Relative humidity 63%
Wind chill 18°F
Density altitude -2072 ft.
Remarks
Fully automated report.
Automated weather observing station with precipitation discriminator.
METAR K06C 281035Z AUTO 00000KT 10SM OVC075 M07/M13 A3002 RMK AO2 T10751133

Settings

Location code

InnerDrive.Weather 4.0.6770.0 Release CLR 4.0.30319.42000
Copyright ©2018 Inner Drive Technology. All rights reserved. Portions Copyright ©1986-2018 David Braverman.

Find weather

Site navigation


Skip Navigation Links

Place info

Page info

PayPal - The safer, easier way to pay online!

Return home.

Copyright ©2020 Inner Drive Technology. Purveyors of fine, hand-crafted computer software. Page printed 2020-02-28T11:03:33 UTC.